• Join FlightAware (Why Join?)
  • Login
  • US Flag 
08:48PM EST


 

Airport Tracker/Info


-or-


 

Live Flight TrackerFlight Track Log ✈ N37227 ✈ 29-Jul-2014 ✈ MYAT / TCB - KTMB

Flight Track Log - Related Links

Times and Time Zones

All times are in EDT time to prevent confusion due to time zone crossing. See the N37227 flight status page for this flight to view local times or setup timezone preferences in your user account.

Time Position Orientation Groundspeed Altitude Reporting Facility
EDT Latitude Longitude Course Direction KTS MPH feet Rate Location/Type
10:33AM 26.5894 -77.7875 256° West 130 150 4,900  Level Miami Center
10:34AM 26.5725 -77.8319 247° West 128 147 5,700 660 Climbing Miami Center
10:35AM 26.5572 -77.8694 246° West 130 150 6,300 540 Climbing Miami Center
10:36AM 26.5433 -77.9111 250° West 136 157 6,900 540 Climbing Miami Center
10:37AM 26.5308 -77.9525 251° West 139 160 7,500 480 Climbing Miami Center
10:39AM 26.6898 -77.7041 256° West  Level FlightAware Approximate
10:39AM 26.5189 -77.9947 252° West 140 161 8,000  Level Miami Center
10:40AM 26.5242 -78.0425 277° West 150 173 8,100  Climbing Miami Center
10:41AM 26.5264 -78.0969 273° West 169 194 8,100  Level Miami Center
10:42AM 26.5281 -78.1525 272° West 174 200 8,100  Level Miami Center
10:43AM 26.5317 -78.2181 274° West 177 204 8,100  Level Miami Center
10:44AM 26.5342 -78.2744 273° West 179 206 8,100  Level Miami Center
10:45AM 26.5372 -78.3292 274° West 179 206 8,100  Level Miami Center
10:46AM 26.5392 -78.3842 272° West 179 206 8,100  Level Miami Center
10:47AM 26.5428 -78.4392 274° West 178 205 8,100  Level Miami Center
10:48AM 26.5453 -78.4931 273° West 178 205 8,100  Level Miami Center
10:49AM 26.5478 -78.5481 273° West 177 204 8,100  Level Miami Center
10:50AM 26.5506 -78.6031 273° West 177 204 8,100  Level Miami Center
10:51AM 26.5511 -78.6589 271° West 177 204 8,100  Level Miami Center
10:52AM 26.5533 -78.7169 272° West 177 204 8,100  Level Miami Center
10:53AM 26.5500 -78.7822 267° West 175 201 8,100  Level Miami Center
10:54AM 26.5472 -78.8364 267° West 175 201 8,100  Level Miami Center
10:55AM 26.5447 -78.8900 267° West 175 201 8,100  Level Miami Center
10:56AM 26.5422 -78.9453 267° West 176 203 8,100  Level Miami Center
10:57AM 26.5400 -79.0000 267° West 176 203 8,100  Level Miami Center
10:58AM 26.5378 -79.0542 267° West 176 203 8,100  Level Miami Center
10:59AM 26.5347 -79.1078 266° West 175 201 8,100  Level Miami Center
11:00AM 26.5311 -79.1731 266° West 176 203 8,100 -60 Level Miami Center
11:01AM 26.5281 -79.2278 266° West 176 203 8,000 -300 Descending Miami Center
11:02AM 26.5258 -79.2853 268° West 183 211 7,600 -540 Descending Miami Center
11:03AM 26.5233 -79.3489 267° West 189 217 6,900 -540 Descending Miami Center
11:04AM 26.5189 -79.4072 265° West 190 219 6,500 -420 Descending Miami Center
11:05AM 26.5164 -79.4703 267° West 190 219 6,100 -300 Descending Miami Center
11:06AM 26.5122 -79.5253 265° West 180 207 6,000 -60 Descending Miami Center
11:07AM 26.4936 -79.5772 248° West 173 199 6,000  Level Miami Center
11:08AM 26.4717 -79.6122 235° Southwest 172 198 6,000  Level Miami Center
11:08AM 26.4658 -79.6200 230° Southwest 173 199 6,000  Level Miami Center
11:09AM 26.4372 -79.6633 234° Southwest 170 196 6,000  Level Miami Center
11:10AM 26.4094 -79.7078 235° Southwest 169 194 6,000  Level Miami Center
11:11AM 26.3739 -79.7422 221° Southwest 179 206 6,000  Level Miami Center
11:12AM 26.3303 -79.7717 211° Southwest 175 201 6,000  Level Miami Center
11:14AM 26.2844 -79.8006 209° Southwest 176 203 6,000  Level Miami Center
11:15AM 26.2431 -79.8281 211° Southwest 177 204 6,000  Level Miami Center
11:16AM 26.1997 -79.8528 207° Southwest 179 206 6,000  Level Miami Center
11:16AM 26.1936 -79.8572 213° Southwest 179 206 6,000  Level Miami Center
11:17AM 26.1525 -79.8747 201° Southwest 183 211 6,000  Level Miami Center
11:17AM 26.1464 -79.8756 187° South 179 206 6,000  Level Miami Center
11:18AM 26.1011 -79.8917 198° South 182 209 6,000  Level Miami Center
11:18AM 26.0972 -79.8928 194° South 181 208 6,000  Level Miami Center
11:19AM 26.0519 -79.9089 198° South 186 214 6,000  Level Miami Center
11:19AM 26.0481 -79.9111 207° Southwest 184 212 6,000  Level Miami Center
11:20AM 26.0044 -79.9333 205° Southwest 185 213 6,000  Level Miami Center
11:20AM 26.0019 -79.9347 207° Southwest 184 212 6,000  Level Miami Center
11:21AM 25.9628 -79.9650 215° Southwest 180 207 6,000  Level Miami Center
11:21AM 25.9614 -79.9675 238° Southwest 183 211 6,000 -120 Level Miami Center
11:22AM 25.9231 -79.9967 214° Southwest 177 204 5,900 -240 Descending Miami Center
11:22AM 25.9119 -80.0036 209° Southwest 179 206 5,800 -720 Descending Miami Center
11:23AM 25.8725 -80.0347 215° Southwest 198 228 5,100 -720 Descending Miami Center
11:23AM 25.8675 -80.0372 204° Southwest 190 219 5,100 -480 Level Miami Center
11:24AM 25.8331 -80.0642 215° Southwest 192 221 4,700 -540 Descending Miami Center
11:24AM 25.8244 -80.0697 210° Southwest 190 219 4,600 -480 Descending Miami Center
11:25AM 25.7892 -80.0978 216° Southwest 180 207 4,200 -540 Descending Miami Center
11:25AM 25.7847 -80.1025 224° Southwest 181 208 4,100 -600 Descending Miami Center
11:27AM 25.7053 -80.1631 134° Southeast 174 200 3,000 -600 Descending Miami Center
11:27AM 25.7000 -80.1722 237° Southwest 173 199 2,900 -420 Descending Miami Center
11:28AM 25.6817 -80.2053 238° Southwest 159 183 2,600 -420 Descending Miami Center
11:28AM 25.6772 -80.2147 242° Southwest 161 185 2,500 -540 Descending Miami Center
11:29AM 25.6606 -80.2453 239° Southwest 153 176 2,100 -420 Descending Miami Center
11:29AM 25.6572 -80.2564 252° West 156 180 2,100 -300 Level Miami Center
11:30AM 25.6492 -80.2906 255° West 150 173 1,800 -420 Descending Miami Center
11:30AM 25.6492 -80.3008 270° West 151 174 1,700 -420 Descending Miami Center
11:31AM 25.6461 -80.3389 265° West 145 167 1,400 -420 Descending Miami Center
11:31AM 25.6472 -80.3453 281° West 149 171 1,300 -600 Descending Miami Center
11:32AM 25.6461 -80.3736 268° West 120 138 900 -540 Descending Miami Center
11:32AM 25.6453 -80.3814 263° West 123 142 800 -600 Descending Miami Center
11:33AM 25.6436 -80.4103 266° West 120 138 300 -720 Descending Miami Center
11:33AM 25.6439 -80.4183 272° West 121 139 100 -480 Descending Miami Center
11:34AM 25.6333 -80.4167 246° West  Level FlightAware Approximate
11:35AM 25.6476 -80.4332 42° Northeast  Level Estimated
11:36AM 25.6476 -80.4332 246° West  Level Estimated
11:37AM 25.6476 -80.4332 134° Southeast  Level Estimated